createdAt,value
2023-01-19T00:00:35.910Z,99841.84
2023-01-19T00:03:04.580Z,99844.00
2023-01-19T00:05:31.495Z,99826.88
2023-01-19T00:07:58.744Z,99838.31
2023-01-19T00:10:27.049Z,99840.88
2023-01-19T00:12:53.764Z,99848.81
2023-01-19T00:15:20.528Z,99855.00
2023-01-19T00:17:47.381Z,99850.09
2023-01-19T00:20:14.160Z,99854.94
2023-01-19T00:22:41.277Z,99859.56
2023-01-19T00:25:08.810Z,99863.50
2023-01-19T00:27:36.847Z,99868.22
2023-01-19T00:30:04.187Z,99862.97
2023-01-19T00:32:31.066Z,99875.75
2023-01-19T00:34:57.856Z,99876.69
2023-01-19T00:37:24.611Z,99863.44
2023-01-19T00:39:51.355Z,99869.13
2023-01-19T00:42:18.115Z,99858.03
2023-01-19T00:44:46.374Z,99870.50
2023-01-19T00:47:13.151Z,99862.13
2023-01-19T00:49:40.127Z,99854.16
2023-01-19T00:52:06.881Z,99857.38
2023-01-19T00:54:33.718Z,99855.66
2023-01-19T00:57:00.442Z,99852.34
2023-01-19T00:59:27.330Z,99860.91
2023-01-19T01:01:56.002Z,99847.19
2023-01-19T01:04:22.871Z,99849.72
2023-01-19T01:06:49.651Z,99858.38
2023-01-19T01:09:16.435Z,99842.59
2023-01-19T01:11:43.587Z,99866.81
2023-01-19T01:14:12.009Z,99863.47
2023-01-19T01:16:39.249Z,99847.25
2023-01-19T01:19:07.613Z,99867.25
2023-01-19T01:21:34.380Z,99855.38
2023-01-19T01:24:01.366Z,99884.47
2023-01-19T01:26:28.300Z,99879.97
2023-01-19T01:28:55.083Z,99876.38
2023-01-19T01:31:21.915Z,99865.97
2023-01-19T01:33:48.689Z,99878.75
2023-01-19T01:36:16.953Z,99898.16
2023-01-19T01:38:43.691Z,99926.53
2023-01-19T01:41:11.198Z,99937.91
2023-01-19T01:43:44.713Z,99937.34
2023-01-19T01:46:12.342Z,99938.88
2023-01-19T01:48:40.602Z,99936.47
2023-01-19T01:51:10.959Z,99939.78
2023-01-19T01:53:41.050Z,99944.66
2023-01-19T01:56:24.330Z,99941.47
2023-01-19T01:58:51.739Z,99920.34
2023-01-19T02:01:18.650Z,99929.59
2023-01-19T02:03:45.645Z,99941.75
2023-01-19T02:06:13.681Z,99936.13
2023-01-19T02:08:46.671Z,99930.88
2023-01-19T02:11:13.922Z,99938.06
2023-01-19T02:13:43.080Z,99936.38
2023-01-19T02:16:11.010Z,99934.66
2023-01-19T02:18:38.157Z,99942.28
2023-01-19T02:21:11.125Z,99945.41
2023-01-19T02:23:45.317Z,99945.44
2023-01-19T02:26:18.388Z,99945.31
2023-01-19T02:28:49.329Z,99943.75
2023-01-19T02:31:16.293Z,99962.16
2023-01-19T02:33:43.628Z,99951.16
2023-01-19T02:36:13.403Z,99955.09
2023-01-19T02:38:42.754Z,99956.56
2023-01-19T02:41:13.140Z,99967.94
2023-01-19T02:43:41.843Z,99960.03
2023-01-19T02:46:08.954Z,99955.94
2023-01-19T02:48:35.962Z,99956.81
2023-01-19T02:51:08.291Z,99961.81
2023-01-19T02:54:02.736Z,99965.38
2023-01-19T02:56:44.561Z,99966.47
2023-01-19T02:59:22.199Z,99972.50
2023-01-19T03:02:02.572Z,99965.28
2023-01-19T03:04:38.755Z,99983.47
2023-01-19T03:07:12.012Z,99979.00
2023-01-19T03:09:48.437Z,99977.41
2023-01-19T03:12:25.353Z,99986.56
2023-01-19T03:14:57.579Z,99987.44
2023-01-19T03:17:28.309Z,99990.09
2023-01-19T03:19:55.645Z,99986.94
2023-01-19T03:22:26.283Z,99988.03
2023-01-19T03:24:58.533Z,99988.25
2023-01-19T03:27:27.191Z,99992.59
2023-01-19T03:29:57.915Z,99996.25
2023-01-19T03:32:29.687Z,99994.09
2023-01-19T03:35:00.036Z,100001.06
2023-01-19T03:37:29.889Z,100009.25
2023-01-19T03:39:57.970Z,100014.69
2023-01-19T03:42:27.147Z,100004.16
2023-01-19T03:44:56.266Z,100024.50
2023-01-19T03:47:23.897Z,100025.03
2023-01-19T03:49:53.222Z,100033.13
2023-01-19T03:52:28.057Z,100028.25
2023-01-19T03:54:54.972Z,100042.63
2023-01-19T03:57:23.071Z,100038.06
2023-01-19T03:59:49.750Z,100035.50
2023-01-19T04:02:16.614Z,100027.59
2023-01-19T04:04:43.389Z,100053.88
2023-01-19T04:07:10.743Z,100049.91
2023-01-19T04:09:37.431Z,100045.09
2023-01-19T04:12:04.556Z,100060.16
2023-01-19T04:14:32.767Z,100053.28
2023-01-19T04:16:59.950Z,100065.63
2023-01-19T04:19:26.677Z,100061.38
2023-01-19T04:21:53.382Z,100070.88
2023-01-19T04:24:20.141Z,100083.31
2023-01-19T04:26:46.816Z,100081.03
2023-01-19T04:29:13.626Z,100081.31
2023-01-19T04:31:41.724Z,100081.97
2023-01-19T04:34:08.499Z,100091.59
2023-01-19T04:36:35.182Z,100088.94
2023-01-19T04:39:01.833Z,100080.69
2023-01-19T04:41:30.286Z,100074.66
2023-01-19T04:43:57.823Z,100100.47
2023-01-19T04:46:24.757Z,100110.41
2023-01-19T04:48:53.098Z,100103.53
2023-01-19T04:51:19.848Z,100111.41
2023-01-19T04:53:47.791Z,100114.84
2023-01-19T04:56:14.797Z,100118.50
2023-01-19T04:58:41.522Z,100103.34
2023-01-19T05:01:09.039Z,100118.97
2023-01-19T05:03:36.028Z,100118.28
2023-01-19T05:06:04.447Z,100118.28
2023-01-19T05:08:31.205Z,100121.19
2023-01-19T05:10:58.276Z,100132.34
2023-01-19T05:13:25.132Z,100138.28
2023-01-19T05:15:52.303Z,100136.66
2023-01-19T05:18:19.106Z,100146.28
2023-01-19T05:20:45.762Z,100139.31
2023-01-19T05:23:13.981Z,100130.38
2023-01-19T05:25:42.309Z,100150.16
2023-01-19T05:28:09.106Z,100146.09
2023-01-19T05:30:35.971Z,100163.00
2023-01-19T05:33:03.205Z,100159.97
2023-01-19T05:35:36.179Z,100169.56
2023-01-19T05:38:03.333Z,100175.50
2023-01-19T05:40:31.531Z,100163.19
2023-01-19T05:42:58.661Z,100174.66
2023-01-19T05:45:25.869Z,100181.97
2023-01-19T05:47:53.974Z,100175.69
2023-01-19T05:50:20.847Z,100175.09
2023-01-19T05:52:47.694Z,100179.44
2023-01-19T05:55:15.537Z,100185.56
2023-01-19T05:57:43.889Z,100186.75
2023-01-19T06:00:12.012Z,100189.28
2023-01-19T06:02:39.893Z,100184.19
2023-01-19T06:05:07.064Z,100192.50
2023-01-19T06:07:33.817Z,100188.00
2023-01-19T06:10:00.756Z,100187.66
2023-01-19T06:12:27.663Z,100193.44
2023-01-19T06:14:55.890Z,100192.25
2023-01-19T06:17:22.673Z,100194.88
2023-01-19T06:19:49.753Z,100193.50
2023-01-19T06:22:16.865Z,100197.84
2023-01-19T06:24:43.627Z,100194.59
2023-01-19T06:27:10.326Z,100210.66
2023-01-19T06:29:37.495Z,100208.22
2023-01-19T06:32:06.688Z,100220.00
2023-01-19T06:34:33.537Z,100221.88
2023-01-19T06:37:00.243Z,100229.66
2023-01-19T06:39:27.044Z,100227.31
2023-01-19T06:41:53.745Z,100246.72
2023-01-19T06:44:20.407Z,100247.31
2023-01-19T06:46:47.264Z,100253.84
2023-01-19T06:49:15.480Z,100253.69
2023-01-19T06:51:42.181Z,100259.94
2023-01-19T06:54:08.982Z,100262.44
2023-01-19T06:56:35.633Z,100262.06
2023-01-19T06:59:02.983Z,100270.06
2023-01-19T07:01:29.903Z,100248.22
2023-01-19T07:03:56.684Z,100270.97
2023-01-19T07:06:24.912Z,100261.19
2023-01-19T07:08:51.695Z,100268.78
2023-01-19T07:11:25.188Z,100280.41
2023-01-19T07:13:58.596Z,100286.91
2023-01-19T07:16:25.703Z,100298.19
2023-01-19T07:18:52.834Z,100292.78
2023-01-19T07:21:19.600Z,100296.41
2023-01-19T07:23:49.894Z,100298.72
2023-01-19T07:26:16.618Z,100305.78
2023-01-19T07:28:43.297Z,100308.34
2023-01-19T07:31:10.298Z,100314.59
2023-01-19T07:33:37.091Z,100314.28
2023-01-19T07:36:04.054Z,100320.47
2023-01-19T07:38:30.782Z,100317.38
2023-01-19T07:41:10.868Z,100319.09
2023-01-19T07:43:37.657Z,100322.72
2023-01-19T07:46:06.554Z,100333.63
2023-01-19T07:48:33.831Z,100337.97
2023-01-19T07:51:02.081Z,100333.56
2023-01-19T07:53:28.820Z,100338.00
2023-01-19T07:55:56.547Z,100357.28
2023-01-19T07:58:25.466Z,100347.31
2023-01-19T08:00:52.747Z,100349.56
2023-01-19T08:03:19.812Z,100359.50
2023-01-19T08:05:50.438Z,100361.88
2023-01-19T08:08:17.354Z,100372.06
2023-01-19T08:10:44.161Z,100372.31
2023-01-19T08:13:10.986Z,100376.16
2023-01-19T08:15:39.112Z,100372.63
2023-01-19T08:18:06.026Z,100379.25
2023-01-19T08:20:32.824Z,100379.25
2023-01-19T08:22:59.936Z,100386.22
2023-01-19T08:25:32.809Z,100391.06
2023-01-19T08:28:00.158Z,100396.97
2023-01-19T08:30:27.051Z,100403.50
2023-01-19T08:32:55.598Z,100405.25
2023-01-19T08:35:24.706Z,100408.59
2023-01-19T08:37:51.421Z,100417.16
2023-01-19T08:40:18.278Z,100409.31
2023-01-19T08:42:45.632Z,100423.31
2023-01-19T08:45:12.402Z,100417.13
2023-01-19T08:47:43.404Z,100422.53
2023-01-19T08:50:17.401Z,100418.75
2023-01-19T08:52:45.416Z,100437.81
2023-01-19T08:55:12.587Z,100401.16
2023-01-19T08:57:42.763Z,100434.19
2023-01-19T09:00:12.277Z,100434.28
2023-01-19T09:02:39.842Z,100424.31
2023-01-19T09:05:07.839Z,100432.94
2023-01-19T09:07:39.638Z,100434.22
2023-01-19T09:10:08.104Z,100438.75
2023-01-19T09:12:35.315Z,100445.84
2023-01-19T09:15:02.547Z,100444.44
2023-01-19T09:17:29.739Z,100444.78
2023-01-19T09:19:56.866Z,100446.34
2023-01-19T09:22:24.267Z,100444.75
2023-01-19T09:24:52.726Z,100447.88
2023-01-19T09:27:19.438Z,100450.63
2023-01-19T09:29:46.213Z,100451.09
2023-01-19T09:32:13.011Z,100450.09
2023-01-19T09:34:39.765Z,100443.13
2023-01-19T09:37:06.536Z,100450.63
2023-01-19T09:39:33.424Z,100455.78
2023-01-19T09:42:13.662Z,100455.59
2023-01-19T09:44:43.747Z,100450.84
2023-01-19T09:47:14.677Z,100449.06
2023-01-19T09:49:45.925Z,100454.34
2023-01-19T09:52:14.823Z,100455.66
2023-01-19T09:54:47.657Z,100463.03
2023-01-19T09:57:16.013Z,100470.00
2023-01-19T09:59:42.895Z,100472.50
2023-01-19T10:02:27.934Z,100464.88
2023-01-19T10:05:00.446Z,100479.50
2023-01-19T10:07:47.017Z,100508.47
2023-01-19T10:10:19.941Z,100502.97
2023-01-19T10:13:02.826Z,100510.72
2023-01-19T10:15:40.238Z,100508.09
2023-01-19T10:18:18.214Z,100498.47
2023-01-19T10:20:49.395Z,100503.03
2023-01-19T10:23:25.714Z,100499.25
2023-01-19T10:25:53.800Z,100500.41
2023-01-19T10:28:25.840Z,100501.59
2023-01-19T10:30:55.116Z,100498.69
2023-01-19T10:33:22.560Z,100503.19
2023-01-19T10:35:49.960Z,100502.13
2023-01-19T10:38:18.071Z,100494.00
2023-01-19T10:40:55.570Z,100494.44
2023-01-19T10:43:43.071Z,100490.50
2023-01-19T10:46:22.127Z,100494.19
2023-01-19T10:48:51.148Z,100495.03
2023-01-19T10:51:18.373Z,100507.16
2023-01-19T10:53:56.026Z,100506.34
2023-01-19T10:56:25.533Z,100514.09
2023-01-19T10:58:53.871Z,100508.13
2023-01-19T11:01:23.440Z,100508.13
2023-01-19T11:03:50.775Z,100505.47
2023-01-19T11:06:24.204Z,100511.63
2023-01-19T11:08:53.104Z,100505.59
2023-01-19T11:11:23.668Z,100503.75
2023-01-19T11:14:10.861Z,100512.78
2023-01-19T11:16:40.258Z,100508.31
2023-01-19T11:22:17.162Z,100507.91
2023-01-19T11:24:44.423Z,100508.00
2023-01-19T11:27:11.240Z,100511.41
2023-01-19T11:29:39.532Z,100503.09
2023-01-19T11:32:12.176Z,100508.56
2023-01-19T11:34:39.012Z,100510.44
2023-01-19T11:37:26.801Z,100519.63
2023-01-19T11:39:55.983Z,100510.38
2023-01-19T11:42:23.044Z,100511.44
2023-01-19T11:44:59.032Z,100515.47
2023-01-19T11:47:28.906Z,100527.66
2023-01-19T11:50:01.066Z,100520.38
2023-01-19T11:52:33.647Z,100523.91
2023-01-19T11:55:06.895Z,100515.25
2023-01-19T11:57:34.124Z,100520.41
2023-01-19T12:00:04.966Z,100524.63
2023-01-19T12:02:43.503Z,100529.88
2023-01-19T12:05:16.022Z,100523.72
2023-01-19T12:07:45.267Z,100521.38
2023-01-19T12:10:21.727Z,100527.50
2023-01-19T12:12:48.717Z,100525.44
2023-01-19T12:15:24.450Z,100520.63
2023-01-19T12:17:54.182Z,100531.28
2023-01-19T12:20:26.922Z,100532.38
2023-01-19T12:23:02.675Z,100522.84
2023-01-19T12:25:42.759Z,100531.47
2023-01-19T12:28:13.699Z,100529.41
2023-01-19T12:30:44.518Z,100526.03
2023-01-19T12:33:32.332Z,100531.66
2023-01-19T12:36:01.079Z,100530.63
2023-01-19T12:38:40.077Z,100523.47
2023-01-19T12:41:20.203Z,100524.75
2023-01-19T12:43:47.894Z,100519.03
2023-01-19T12:46:28.951Z,100509.66
2023-01-19T12:49:03.651Z,100517.22
2023-01-19T12:51:30.676Z,100519.72
2023-01-19T12:53:58.631Z,100519.38
2023-01-19T12:56:31.222Z,100514.94
2023-01-19T12:58:58.510Z,100521.53
2023-01-19T13:01:27.011Z,100525.06
2023-01-19T13:04:06.007Z,100525.50
2023-01-19T13:07:07.771Z,100520.56
2023-01-19T13:09:35.628Z,100523.22
2023-01-19T13:12:24.708Z,100530.63
2023-01-19T13:15:28.156Z,100526.53
2023-01-19T13:17:56.868Z,100526.94
2023-01-19T13:20:27.344Z,100529.06
2023-01-19T13:23:17.103Z,100540.81
2023-01-19T13:26:01.192Z,100539.97
2023-01-19T13:28:35.432Z,100539.66
2023-01-19T13:31:03.056Z,100530.06
2023-01-19T13:33:40.845Z,100537.50
2023-01-19T13:36:19.803Z,100523.66
2023-01-19T13:38:48.389Z,100536.00
2023-01-19T13:41:18.898Z,100529.25
2023-01-19T13:43:47.787Z,100535.84
2023-01-19T13:46:15.672Z,100538.63
2023-01-19T13:48:54.878Z,100539.34
2023-01-19T13:51:21.710Z,100541.72
2023-01-19T13:53:55.896Z,100548.31
2023-01-19T13:56:24.569Z,100557.53
2023-01-19T13:59:08.013Z,100544.94
2023-01-19T14:01:34.980Z,100542.72
2023-01-19T14:04:04.035Z,100542.63
2023-01-19T14:06:34.773Z,100547.13
2023-01-19T14:09:15.605Z,100548.91
2023-01-19T14:11:42.549Z,100556.13
2023-01-19T14:14:23.211Z,100554.28
2023-01-19T14:16:50.178Z,100558.69
2023-01-19T14:19:18.611Z,100542.41
2023-01-19T14:21:45.357Z,100563.44
2023-01-19T14:24:18.233Z,100558.53
2023-01-19T14:26:47.306Z,100569.78
2023-01-19T14:29:25.495Z,100574.50
2023-01-19T14:32:04.991Z,100569.69
2023-01-19T14:34:36.161Z,100579.22
2023-01-19T14:37:05.546Z,100582.34
2023-01-19T14:39:34.463Z,100583.41
2023-01-19T14:42:04.097Z,100581.09
2023-01-19T14:44:34.928Z,100580.84
2023-01-19T14:47:03.309Z,100576.78
2023-01-19T14:49:47.519Z,100587.06
2023-01-19T14:52:21.915Z,100592.69
2023-01-19T14:54:49.616Z,100602.56
2023-01-19T14:57:16.449Z,100600.31
2023-01-19T14:59:43.322Z,100602.44
2023-01-19T15:02:10.194Z,100598.94
2023-01-19T15:04:38.757Z,100613.03
2023-01-19T15:07:07.564Z,100607.06
2023-01-19T15:09:34.483Z,100612.69
2023-01-19T15:12:01.239Z,100608.84
2023-01-19T15:14:28.131Z,100615.28
2023-01-19T15:16:54.926Z,100619.91
2023-01-19T15:19:22.142Z,100622.72
2023-01-19T15:21:50.480Z,100623.31
2023-01-19T15:24:18.088Z,100621.97
2023-01-19T15:26:46.044Z,100631.28
2023-01-19T15:29:18.213Z,100629.03
2023-01-19T15:31:45.157Z,100637.47
2023-01-19T15:34:13.362Z,100644.94
2023-01-19T15:36:40.378Z,100645.44
2023-01-19T15:39:10.766Z,100652.00
2023-01-19T15:41:38.703Z,100645.59
2023-01-19T15:44:06.756Z,100656.09
2023-01-19T15:46:34.055Z,100653.78
2023-01-19T15:49:00.863Z,100651.28
2023-01-19T15:51:28.173Z,100652.34
2023-01-19T15:53:55.698Z,100649.63
2023-01-19T15:56:25.719Z,100645.59
2023-01-19T15:58:53.375Z,100655.88
2023-01-19T16:01:21.897Z,100653.41
2023-01-19T16:03:49.676Z,100655.91
2023-01-19T16:06:17.077Z,100660.47
2023-01-19T16:08:44.820Z,100668.38
2023-01-19T16:11:15.040Z,100666.00
2023-01-19T16:13:49.558Z,100671.44
2023-01-19T16:16:27.022Z,100669.56
2023-01-19T16:18:53.853Z,100673.97
2023-01-19T16:21:20.697Z,100677.41
2023-01-19T16:23:47.383Z,100682.78
2023-01-19T16:26:27.438Z,100675.94
2023-01-19T16:28:58.393Z,100682.19
2023-01-19T16:31:25.768Z,100691.75
2023-01-19T16:33:52.516Z,100687.72
2023-01-19T16:36:21.670Z,100693.47
2023-01-19T16:38:48.658Z,100701.97
2023-01-19T16:41:15.801Z,100707.84
2023-01-19T16:43:42.637Z,100718.69
2023-01-19T16:46:19.346Z,100731.78
2023-01-19T16:48:46.132Z,100741.50
2023-01-19T16:51:12.894Z,100755.69
2023-01-19T16:53:39.792Z,100756.09
2023-01-19T16:56:09.178Z,100765.00
2023-01-19T16:58:36.198Z,100761.19
2023-01-19T17:01:07.143Z,100764.50
2023-01-19T17:03:38.078Z,100763.03
2023-01-19T17:06:05.412Z,100754.66
2023-01-19T17:08:32.456Z,100763.69
2023-01-19T17:10:59.703Z,100753.50
2023-01-19T17:13:26.484Z,100765.69
2023-01-19T17:15:53.197Z,100769.56
2023-01-19T17:18:19.882Z,100781.00
2023-01-19T17:20:48.027Z,100785.41
2023-01-19T17:23:15.290Z,100777.75
2023-01-19T17:25:42.245Z,100759.59
2023-01-19T17:28:09.037Z,100770.91
2023-01-19T17:30:35.836Z,100764.28
2023-01-19T17:33:02.594Z,100759.22
2023-01-19T17:35:29.355Z,100778.66
2023-01-19T17:37:57.959Z,100775.31
2023-01-19T17:40:24.688Z,100761.44
2023-01-19T17:42:51.524Z,100773.56
2023-01-19T17:45:18.484Z,100765.91
2023-01-19T17:47:48.172Z,100768.63
2023-01-19T17:50:15.670Z,100777.44
2023-01-19T17:52:42.941Z,100780.06
2023-01-19T17:55:11.551Z,100780.06
2023-01-19T17:57:38.741Z,100774.91
2023-01-19T18:00:07.059Z,100782.78
2023-01-19T18:02:39.170Z,100784.34
2023-01-19T18:05:24.595Z,100788.56
2023-01-19T18:07:51.387Z,100791.25
2023-01-19T18:10:19.650Z,100797.19
2023-01-19T18:12:46.771Z,100794.59
2023-01-19T18:15:15.394Z,100797.31
2023-01-19T18:17:43.724Z,100796.56
2023-01-19T18:20:11.796Z,100807.88
2023-01-19T18:22:38.790Z,100807.00
2023-01-19T18:25:06.066Z,100827.66
2023-01-19T18:27:34.229Z,100843.25
2023-01-19T18:30:01.056Z,100849.31
2023-01-19T18:32:27.766Z,100853.63
2023-01-19T18:34:54.459Z,100856.41
2023-01-19T18:37:21.293Z,100851.28
2023-01-19T18:39:48.097Z,100853.13
2023-01-19T18:42:14.855Z,100857.50
2023-01-19T18:44:43.221Z,100860.09
2023-01-19T18:47:10.044Z,100861.06
2023-01-19T18:49:36.769Z,100858.47
2023-01-19T18:52:03.861Z,100854.09
2023-01-19T18:54:30.831Z,100857.50
2023-01-19T18:56:57.806Z,100862.75
2023-01-19T18:59:24.660Z,100857.59
2023-01-19T19:01:52.887Z,100855.94
2023-01-19T19:04:19.745Z,100861.28
2023-01-19T19:06:46.486Z,100845.88
2023-01-19T19:09:13.221Z,100863.28
2023-01-19T19:11:39.914Z,100857.34
2023-01-19T19:14:06.706Z,100848.81
2023-01-19T19:16:35.479Z,100848.03
2023-01-19T19:19:04.744Z,100849.72
2023-01-19T19:21:31.422Z,100846.22
2023-01-19T19:23:58.418Z,100857.47
2023-01-19T19:26:26.146Z,100852.34
2023-01-19T19:28:53.026Z,100856.59
2023-01-19T19:31:21.602Z,100851.34
2023-01-19T19:33:48.991Z,100854.88
2023-01-19T19:36:17.495Z,100857.47
2023-01-19T19:38:44.322Z,100847.78
2023-01-19T19:41:13.522Z,100849.72
2023-01-19T19:43:40.939Z,100860.19
2023-01-19T19:46:10.302Z,100855.78
2023-01-19T19:48:39.209Z,100867.06
2023-01-19T19:51:17.670Z,100869.75
2023-01-19T19:53:47.887Z,100866.34
2023-01-19T19:56:16.120Z,100872.38
2023-01-19T19:58:43.624Z,100876.72
2023-01-19T20:01:12.043Z,100878.31
2023-01-19T20:03:39.292Z,100880.91
2023-01-19T20:06:08.413Z,100881.00
2023-01-19T20:08:35.921Z,100878.31
2023-01-19T20:11:10.176Z,100882.63
2023-01-19T20:13:39.450Z,100886.03
2023-01-19T20:16:09.109Z,100886.06
2023-01-19T20:18:37.254Z,100887.72
2023-01-19T20:21:11.528Z,100899.81
2023-01-19T20:23:38.305Z,100899.66
2023-01-19T20:26:07.047Z,100902.94
2023-01-19T20:28:33.811Z,100900.50
2023-01-19T20:31:08.674Z,100899.66
2023-01-19T20:33:35.588Z,100893.63
2023-01-19T20:36:02.411Z,100904.88
2023-01-19T20:38:30.059Z,100901.56
2023-01-19T20:40:57.196Z,100901.59
2023-01-19T20:43:25.503Z,100899.72
2023-01-19T20:45:52.367Z,100901.28
2023-01-19T20:48:19.223Z,100906.53
2023-01-19T20:50:46.012Z,100916.81
2023-01-19T20:53:14.578Z,100922.03
2023-01-19T20:55:41.382Z,100923.88
2023-01-19T20:58:08.106Z,100926.47
2023-01-19T21:00:36.435Z,100925.69
2023-01-19T21:03:03.415Z,100924.06
2023-01-19T21:05:30.396Z,100926.59
2023-01-19T21:07:57.369Z,100939.75
2023-01-19T21:10:24.240Z,100941.34
2023-01-19T21:12:51.264Z,100933.22
2023-01-19T21:15:18.079Z,100936.63
2023-01-19T21:17:46.257Z,100941.03
2023-01-19T21:20:13.761Z,100943.56
2023-01-19T21:22:40.535Z,100939.22
2023-01-19T21:25:07.778Z,100947.09
2023-01-19T21:27:34.515Z,100944.53
2023-01-19T21:30:01.326Z,100947.09
2023-01-19T21:32:28.349Z,100947.19
2023-01-19T21:34:56.609Z,100950.75
2023-01-19T21:37:23.327Z,100952.59
2023-01-19T21:39:50.100Z,100944.03
2023-01-19T21:42:16.874Z,100953.63
2023-01-19T21:44:43.680Z,100957.22
2023-01-19T21:47:10.484Z,100959.13
2023-01-19T21:49:37.389Z,100957.50
2023-01-19T21:52:06.864Z,100954.88
2023-01-19T21:54:33.793Z,100959.19
2023-01-19T21:57:00.733Z,100962.72
2023-01-19T21:59:27.981Z,100959.19
2023-01-19T22:01:55.128Z,100963.47
2023-01-19T22:04:22.088Z,100968.75
2023-01-19T22:06:49.136Z,100960.25
2023-01-19T22:09:17.278Z,100965.50
2023-01-19T22:11:44.048Z,100964.59
2023-01-19T22:14:10.881Z,100971.59
2023-01-19T22:16:37.681Z,100973.41
2023-01-19T22:19:04.434Z,100973.53
2023-01-19T22:21:32.923Z,100980.34
2023-01-19T22:24:01.328Z,100977.00
2023-01-19T22:26:30.926Z,100980.28
2023-01-19T22:28:59.547Z,100971.53
2023-01-19T22:31:28.334Z,100982.00
2023-01-19T22:33:55.771Z,100976.84
2023-01-19T22:36:24.530Z,100971.78
2023-01-19T22:38:55.261Z,100975.56
2023-01-19T22:41:24.053Z,100972.81
2023-01-19T22:43:56.886Z,100979.00
2023-01-19T22:46:25.556Z,100974.66
2023-01-19T22:48:53.091Z,100985.88
2023-01-19T22:51:21.042Z,100975.53
2023-01-19T22:53:47.919Z,100981.63
2023-01-19T22:56:16.963Z,100992.25
2023-01-19T22:58:44.786Z,100988.75
2023-01-19T23:01:14.973Z,100996.75
2023-01-19T23:03:42.288Z,100991.53
2023-01-19T23:06:11.450Z,100996.91
2023-01-19T23:08:38.981Z,100991.78
2023-01-19T23:11:06.862Z,100996.03
2023-01-19T23:13:34.198Z,100999.41
2023-01-19T23:16:01.629Z,101003.72
2023-01-19T23:18:30.263Z,101001.16
2023-01-19T23:21:02.295Z,101002.63
2023-01-19T23:23:29.149Z,101001.91
2023-01-19T23:25:59.660Z,101005.25
2023-01-19T23:28:26.423Z,101010.47
2023-01-19T23:30:53.386Z,101010.63
2023-01-19T23:33:21.079Z,101015.13
2023-01-19T23:35:49.373Z,101012.53
2023-01-19T23:38:16.136Z,101014.28
2023-01-19T23:40:42.998Z,101010.88
2023-01-19T23:43:09.800Z,101020.28
2023-01-19T23:45:36.603Z,101020.38
2023-01-19T23:48:03.461Z,101025.63
2023-01-19T23:50:30.469Z,101023.56
2023-01-19T23:52:58.662Z,101023.38
2023-01-19T23:55:27.411Z,101018.69
2023-01-19T23:57:54.150Z,101010.97
